Historyczne dane pomiarowe

Dodano dane terminowe – wersja testowa.

Dane z okresu 1951-2019

Wersja bazy: 1.34 [2019-03-16, lista zmian], aktualizacja planowana na 2019-04-15

Dane meteo z obszaru Polski uzyskane na podstawie danych udostępnionych przez Instytut Meteorologii i Gospodarki Wodnej – Państwowy Instytut Badawczy.

 

Wybierz Datę:    

       

TemperaturaWilgotnośćWiatrCiśnienieOpadyŚniegCzas trwania zjawisk
 Stacja t tx tn tng RH VA  wxwx mslp ppp RRR   cm mm wxwxwxwxwxwxwx
1999-08-14 15.7 21.5 8.8 4.1 59.0- 4.0 1.3---- 0.0------------
1999-08-13 14.3 19.9 8.8 6.6 72.5- 6.3 2.7---- 0.0------------
1999-08-12 16.5 20.1 13.7 12.9 67.3- 7.7 3.0---- 0.0------------
1999-08-11 19.0 24.2 14.9 10.7 82.3- 7.3 3.7---- 0.0------------
1999-08-10 19.7 26.3 14.3 11.8 83.5- 6.7 2.0---- 3.5------------
1999-08-09 22.2 29.3 16.9 15.1 73.8- 2.0 1.3---- 3.0------------
1999-08-08 21.6 27.8 15.9 13.3 77.3- 3.3 2.3---- 0.0------------
1999-08-07 21.0 29.4 12.8 9.0 73.5- 6.7 4.0---- 26.0------------
1999-08-06 21.6 27.6 16.2 14.1 73.8- 4.3 2.3---- 0.0------------
1999-08-05 18.6 26.8 9.3 4.3 65.3- 5.0 2.3---- 1.9------------
1999-08-04 17.6 25.3 8.2 3.7 67.8- 3.7 2.0---- 0.0------------
1999-08-03 17.7 23.1 10.4 5.3 71.5- 5.0 1.3---- 0.0------------
1999-08-02 17.5 24.2 10.3 4.9 69.5- 6.0 1.0---- 0.0------------
1999-08-01 18.7 26.2 10.3 5.1 55.8- 4.7 3.7---- 0.0------------
1999-07-31 19.2 26.0 9.8 4.6 45.8- 3.7 2.7---- 0.0------------
1999-07-30 18.9 25.0 9.8 4.1 51.3- 2.0 2.0---- 0.0------------
1999-07-29 18.6 24.8 12.3 6.7 57.3- 2.0 3.7---- 0.0------------
1999-07-28 19.0 25.3 11.4 7.2 55.0- 2.0 2.7---- 0.0------------
1999-07-27 20.1 25.3 15.7 11.2 70.8- 5.7 3.0---- 0.0------------
1999-07-26 21.6 30.0 12.3 8.2 66.3- 4.0 1.3---- 0.0------------
1999-07-25 18.4 24.8 9.8 5.7 64.8- 3.3 0.7---- 0.0------------
1999-07-24 17.0 22.4 12.3 7.2 76.3- 7.0 2.7---- 0.0------------
1999-07-23 15.9 19.4 13.7 12.2 88.0- 8.0 0.3---- 1.7------------
1999-07-22 19.3 24.3 15.7 11.2 70.0- 5.7 3.3---- 1.2------------
1999-07-21 22.5 28.8 16.3 11.2 63.8- 4.7 3.0---- 1.8------------
1999-07-20 21.7 28.6 12.4 7.6 61.0- 1.0 2.7---- 0.0------------
1999-07-19 20.4 27.8 10.8 6.1 56.5- 1.3 1.7---- 0.0------------
1999-07-18 17.8 26.0 9.7 5.1 73.0- 1.7 1.3---- 0.0------------
1999-07-17 17.5 24.0 9.7 5.9 71.5- 1.7 2.0---- 0.0------------
1999-07-16 16.4 22.4 10.5 6.3 66.5- 4.0 2.0---- 0.0------------
1999-07-15 16.9 19.9 13.7 11.4 78.5- 7.3 2.7---- 0.0------------
1999-07-14 20.2 27.0 16.2 15.3 83.3- 6.7 4.3---- 0.5------------
1999-07-13 20.2 26.0 14.2 10.7 83.3- 8.0 2.0---- 27.1------------
1999-07-12 20.6 27.8 14.2 9.7 72.3- 4.7 2.7---- 0.0------------
1999-07-11 19.8 22.2 16.2 14.1 77.0- 6.3 2.7---- 10.9------------
1999-07-10 20.9 24.8 17.7 15.3 69.3- 7.3 5.0---- 0.0------------
1999-07-09 18.3 20.5 15.2 14.9 91.8- 7.7 3.7---- 0.1------------
1999-07-08 16.7 19.0 14.9 14.6 97.5- 8.0 3.0---- 0.8------------
1999-07-07 21.2 27.3 18.2 14.1 90.3- 8.0 2.3---- 26.6------------
1999-07-06 25.4 31.7 17.7 11.8 56.3- 3.7 3.3---- 0.0------------
1999-07-05 24.8 31.2 16.2 11.2 56.5- 2.0 2.7---- 0.0------------
1999-07-04 23.2 30.3 12.6 7.8 59.0- 0.3 1.0---- 0.0------------
1999-07-03 19.2 25.6 9.8 9.7 71.5- 1.3 1.7---- 0.0------------
1999-07-02 18.0 24.8 11.3 8.2 82.0- 5.7 1.7---- 1.1------------
1999-07-01 19.1 25.0 13.0 9.4 84.0- 5.7 2.7---- 0.0------------
1999-06-30 20.2 25.3 11.8 7.4 60.3- 4.3 1.0---- 0.0------------
1999-06-29 18.7 23.4 13.2 13.5 69.8- 3.0 1.0---- 0.0------------
1999-06-28 19.1 27.6 12.0 7.7 69.5- 5.0 1.7---- 11.7------------
1999-06-27 19.9 26.8 11.6 5.6 60.3- 3.0 1.7---- 0.0------------
1999-06-26 17.1 24.1 9.0 5.1 63.0- 3.0 1.7---- 0.0------------
1999-06-25 12.3 19.2 4.1 0.0 77.0- 3.7 1.7---- 0.4------------
1999-06-24 11.6 17.2 4.6 4.6 79.0- 5.3 1.7---- 0.0------------
1999-06-23 10.9 13.1 7.4 6.6 89.8- 7.3 3.7---- 1.2------------
1999-06-22 9.8 14.4 7.8 6.8 95.8- 8.0 9.7---- 34.3------------
1999-06-21 17.4 22.7 14.1 10.2 77.3- 7.7 4.3---- 36.7------------
1999-06-20 17.2 22.5 11.4 8.2 86.5- 6.0 1.0---- 0.0------------
1999-06-19 14.6 16.6 12.0 11.4 93.0- 8.0 1.7---- 0.0------------
1999-06-18 16.3 20.0 14.1 12.8 98.5- 8.0 4.3---- 34.0------------
1999-06-17 18.4 20.8 15.7 14.7 86.5- 8.0 2.3---- 1.6------------
1999-06-16 16.3 18.0 14.7 14.3 96.0- 8.0 2.0---- 0.0------------
396.3 ms

 

Źródłem pochodzenia danych jest Instytut Meteorologii i Gospodarki Wodnej – Państwowy Instytut Badawczy. Dane Instytutu Meteorologii i Gospodarki Wodnej – Państwowego Instytutu Badawczego zostały przetworzone.

Dane źródłowe można odnaleźć na stronie https://dane.imgw.pl